createdAt,value
2019-03-11T00:01:00.811Z,1.03
2019-03-11T00:03:28.637Z,1.03
2019-03-11T00:05:56.383Z,1.90
2019-03-11T00:08:24.140Z,1.63
2019-03-11T00:10:51.777Z,2.47
2019-03-11T00:13:19.969Z,1.90
2019-03-11T00:15:47.639Z,0.87
2019-03-11T00:18:15.752Z,1.10
2019-03-11T00:20:43.780Z,1.07
2019-03-11T00:23:11.968Z,1.00
2019-03-11T00:25:42.319Z,2.00
2019-03-11T00:28:10.558Z,2.07
2019-03-11T00:30:38.749Z,1.40
2019-03-11T00:33:06.546Z,3.10
2019-03-11T00:35:34.533Z,1.97
2019-03-11T00:38:02.822Z,1.87
2019-03-11T00:40:30.897Z,4.13
2019-03-11T00:42:59.047Z,2.80
2019-03-11T00:45:27.134Z,4.73
2019-03-11T00:48:02.039Z,4.50
2019-03-11T00:50:25.394Z,3.07
2019-03-11T00:52:53.079Z,2.70
2019-03-11T00:55:20.775Z,1.27
2019-03-11T00:57:48.589Z,3.07
2019-03-11T01:00:23.021Z,4.70
2019-03-11T01:02:51.749Z,3.43
2019-03-11T01:05:19.580Z,2.50
2019-03-11T01:07:47.569Z,3.67
2019-03-11T01:10:15.227Z,2.00
2019-03-11T01:12:43.684Z,3.73
2019-03-11T01:15:11.891Z,2.93
2019-03-11T01:17:39.551Z,3.20
2019-03-11T01:20:07.513Z,4.07
2019-03-11T01:22:35.108Z,1.57
2019-03-11T01:25:04.864Z,2.00
2019-03-11T01:27:32.434Z,2.23
2019-03-11T01:30:00.353Z,2.63
2019-03-11T01:32:28.829Z,1.50
2019-03-11T01:34:56.715Z,1.67
2019-03-11T01:37:24.620Z,1.27
2019-03-11T01:39:52.796Z,1.33
2019-03-11T01:42:20.573Z,1.73
2019-03-11T01:44:48.008Z,2.30
2019-03-11T01:47:15.594Z,3.03
2019-03-11T01:49:43.544Z,4.23
2019-03-11T01:52:12.127Z,2.33
2019-03-11T01:54:39.895Z,3.80
2019-03-11T01:57:08.295Z,2.10
2019-03-11T01:59:35.934Z,3.20
2019-03-11T02:02:03.813Z,3.37
2019-03-11T02:04:31.378Z,3.67
2019-03-11T02:06:59.138Z,3.90
2019-03-11T02:09:26.699Z,3.73
2019-03-11T02:11:54.568Z,2.80
2019-03-11T02:14:22.108Z,2.27
2019-03-11T02:16:50.428Z,4.87
2019-03-11T02:19:18.382Z,4.03
2019-03-11T02:21:51.384Z,4.47
2019-03-11T02:24:18.891Z,3.07
2019-03-11T02:26:46.969Z,3.33
2019-03-11T02:29:14.407Z,3.07
2019-03-11T02:31:42.495Z,2.97
2019-03-11T02:34:10.721Z,3.73
2019-03-11T02:36:38.828Z,1.93
2019-03-11T02:39:06.922Z,3.63
2019-03-11T02:41:34.483Z,4.00
2019-03-11T02:44:02.411Z,4.70
2019-03-11T02:46:29.827Z,4.20
2019-03-11T02:48:58.279Z,6.53
2019-03-11T02:51:26.452Z,2.63
2019-03-11T02:53:53.912Z,2.63
2019-03-11T02:56:22.906Z,2.73
2019-03-11T02:58:50.685Z,3.77
2019-03-11T03:01:40.632Z,3.53
2019-03-11T03:04:13.361Z,2.77
2019-03-11T03:06:40.875Z,1.77
2019-03-11T03:09:13.526Z,4.27
2019-03-11T03:16:58.658Z,2.50
2019-03-11T03:19:26.220Z,3.87
2019-03-11T03:21:56.568Z,7.13
2019-03-11T03:24:24.515Z,5.40
2019-03-11T03:26:52.755Z,3.50
2019-03-11T03:29:20.690Z,3.43
2019-03-11T03:31:48.251Z,8.47
2019-03-11T03:34:15.839Z,5.37
2019-03-11T03:36:43.439Z,6.03
2019-03-11T03:39:10.993Z,3.83
2019-03-11T03:41:38.660Z,4.77
2019-03-11T03:44:06.272Z,3.57
2019-03-11T03:46:34.148Z,4.03
2019-03-11T03:49:01.698Z,3.77
2019-03-11T03:51:29.270Z,3.97
2019-03-11T03:53:57.368Z,6.30
2019-03-11T03:56:25.248Z,3.80
2019-03-11T03:58:52.695Z,4.67
2019-03-11T04:01:20.411Z,3.90
2019-03-11T04:03:48.046Z,6.43
2019-03-11T04:06:16.089Z,7.00
2019-03-11T04:08:43.640Z,3.90
2019-03-11T04:11:11.170Z,4.87
2019-03-11T04:13:39.046Z,3.00
2019-03-11T04:16:07.045Z,5.77
2019-03-11T04:18:53.991Z,4.93
2019-03-11T04:21:21.564Z,6.37
2019-03-11T04:23:50.960Z,7.13
2019-03-11T04:26:19.068Z,6.90
2019-03-11T04:28:47.144Z,3.07
2019-03-11T04:31:15.031Z,5.13
2019-03-11T04:33:42.487Z,6.63
2019-03-11T04:36:10.342Z,9.50
2019-03-11T04:38:38.170Z,7.57
2019-03-11T04:41:05.803Z,4.17
2019-03-11T04:43:33.570Z,6.77
2019-03-11T04:46:01.506Z,4.87
2019-03-11T04:48:29.082Z,7.87
2019-03-11T04:50:57.059Z,8.63
2019-03-11T04:53:25.104Z,6.50
2019-03-11T04:55:52.895Z,9.50
2019-03-11T04:58:20.972Z,4.47
2019-03-11T05:00:52.105Z,5.27
2019-03-11T05:03:19.713Z,15.63
2019-03-11T05:05:47.335Z,4.63
2019-03-11T05:08:15.457Z,5.10
2019-03-11T05:10:43.297Z,6.20
2019-03-11T05:13:10.790Z,9.80
2019-03-11T05:15:38.525Z,4.13
2019-03-11T05:18:06.065Z,7.33
2019-03-11T05:20:33.792Z,5.27
2019-03-11T05:23:01.223Z,3.67
2019-03-11T05:25:29.069Z,6.40
2019-03-11T05:27:56.911Z,7.17
2019-03-11T05:30:24.537Z,4.07
2019-03-11T05:32:52.170Z,4.00
2019-03-11T05:35:20.189Z,5.73
2019-03-11T05:37:48.328Z,6.60
2019-03-11T05:40:15.857Z,3.00
2019-03-11T05:42:44.268Z,8.37
2019-03-11T05:45:12.107Z,6.47
2019-03-11T05:47:40.389Z,6.00
2019-03-11T05:50:10.271Z,7.43
2019-03-11T05:52:38.476Z,3.97
2019-03-11T05:55:06.608Z,6.20
2019-03-11T05:57:34.612Z,5.10
2019-03-11T06:00:02.236Z,4.00
2019-03-11T06:02:29.897Z,7.37
2019-03-11T06:04:58.127Z,7.10
2019-03-11T06:07:26.998Z,4.73
2019-03-11T06:09:55.087Z,8.13
2019-03-11T06:12:23.175Z,6.00
2019-03-11T06:14:51.813Z,9.80
2019-03-11T06:17:19.526Z,5.10
2019-03-11T06:19:48.786Z,7.97
2019-03-11T06:22:19.630Z,6.73
2019-03-11T06:24:47.210Z,9.97
2019-03-11T06:27:15.276Z,7.83
2019-03-11T06:29:43.682Z,3.83
2019-03-11T06:32:11.492Z,7.07
2019-03-11T06:34:39.040Z,3.80
2019-03-11T06:37:07.102Z,4.27
2019-03-11T06:39:34.592Z,3.47
2019-03-11T06:42:02.443Z,2.60
2019-03-11T06:44:30.278Z,2.00
2019-03-11T06:46:57.976Z,1.83
2019-03-11T06:49:25.512Z,3.13
2019-03-11T06:51:53.555Z,5.23
2019-03-11T06:54:22.062Z,3.37
2019-03-11T06:56:49.704Z,2.47
2019-03-11T06:59:17.277Z,3.93
2019-03-11T07:01:45.039Z,3.67
2019-03-11T07:04:12.694Z,4.37
2019-03-11T07:06:41.185Z,3.83
2019-03-11T07:09:09.139Z,5.07
2019-03-11T07:11:36.779Z,2.70
2019-03-11T07:14:04.386Z,2.43
2019-03-11T07:16:32.756Z,2.57
2019-03-11T07:19:01.161Z,2.10
2019-03-11T07:21:29.468Z,1.43
2019-03-11T07:23:57.035Z,1.70
2019-03-11T07:26:24.545Z,1.80
2019-03-11T07:28:52.589Z,3.07
2019-03-11T07:31:20.566Z,1.63
2019-03-11T07:33:48.201Z,1.87
2019-03-11T07:36:18.415Z,2.00
2019-03-11T07:38:46.335Z,3.73
2019-03-11T07:41:14.670Z,1.90
2019-03-11T07:43:42.501Z,2.20
2019-03-11T07:46:10.938Z,3.03
2019-03-11T07:48:39.331Z,1.83
2019-03-11T07:51:07.300Z,1.80
2019-03-11T07:53:35.005Z,2.13
2019-03-11T07:56:02.654Z,1.67
2019-03-11T07:58:30.353Z,2.17
2019-03-11T08:00:57.960Z,2.83
2019-03-11T08:03:25.467Z,2.73
2019-03-11T08:05:53.341Z,3.97
2019-03-11T08:08:20.821Z,2.63
2019-03-11T08:10:48.370Z,3.43
2019-03-11T08:13:16.716Z,4.07
2019-03-11T08:15:44.655Z,3.93
2019-03-11T08:18:13.303Z,3.53
2019-03-11T08:20:40.972Z,2.90
2019-03-11T08:23:08.449Z,2.97
2019-03-11T08:25:35.967Z,1.50
2019-03-11T08:28:03.783Z,2.57
2019-03-11T08:30:31.462Z,2.47
2019-03-11T08:32:59.452Z,2.53
2019-03-11T08:35:27.016Z,1.93
2019-03-11T08:37:54.632Z,2.17
2019-03-11T08:40:22.158Z,2.60
2019-03-11T08:42:50.069Z,4.17
2019-03-11T08:45:18.114Z,1.53
2019-03-11T08:47:46.009Z,1.83
2019-03-11T08:50:13.546Z,2.30
2019-03-11T08:52:41.055Z,1.43
2019-03-11T08:55:11.546Z,1.47
2019-03-11T09:43:23.437Z,1.87
2019-03-11T09:45:56.281Z,1.13
2019-03-11T09:48:38.285Z,1.77
2019-03-11T10:33:21.776Z,1.27
2019-03-11T11:56:30.345Z,0.70
2019-03-11T11:58:57.019Z,2.10
2019-03-11T12:01:24.782Z,0.90
2019-03-11T12:03:52.796Z,1.13
2019-03-11T12:06:20.339Z,1.30
2019-03-11T12:08:48.045Z,1.27
2019-03-11T12:11:15.887Z,1.03
2019-03-11T12:13:43.683Z,0.87
2019-03-11T12:16:12.361Z,1.30
2019-03-11T12:18:54.121Z,1.23
2019-03-11T12:21:32.812Z,0.93
2019-03-11T12:24:00.436Z,2.30
2019-03-11T12:26:28.291Z,0.73
2019-03-11T12:28:59.895Z,2.40
2019-03-11T12:31:38.936Z,2.87
2019-03-11T12:34:07.344Z,2.57
2019-03-11T12:36:38.717Z,1.00
2019-03-11T12:39:07.598Z,1.07
2019-03-11T12:41:36.594Z,1.73
2019-03-11T12:44:04.577Z,2.60
2019-03-11T12:46:32.526Z,1.13
2019-03-11T12:48:59.981Z,1.30
2019-03-11T12:51:27.932Z,1.17
2019-03-11T12:53:55.739Z,3.10
2019-03-11T12:56:23.484Z,2.27
2019-03-11T12:58:51.119Z,2.07
2019-03-11T13:01:19.171Z,0.90
2019-03-11T13:03:46.653Z,1.07
2019-03-11T13:06:14.283Z,1.10
2019-03-11T13:08:42.256Z,1.20
2019-03-11T13:11:09.911Z,1.27
2019-03-11T13:13:37.425Z,0.87
2019-03-11T13:16:05.040Z,0.87
2019-03-11T13:18:37.940Z,1.80
2019-03-11T13:21:14.062Z,1.13
2019-03-11T13:23:41.866Z,1.10
2019-03-11T13:26:09.789Z,1.17
2019-03-11T13:28:37.907Z,0.80
2019-03-11T13:31:05.444Z,1.00
2019-03-11T13:33:33.136Z,1.10
2019-03-11T13:36:00.725Z,1.20
2019-03-11T13:38:28.871Z,1.10
2019-03-11T13:40:56.422Z,1.67
2019-03-11T13:43:24.954Z,1.10
2019-03-11T13:45:52.444Z,0.97
2019-03-11T13:48:20.115Z,1.00
2019-03-11T13:50:47.657Z,1.10
2019-03-11T13:53:16.070Z,1.40
2019-03-11T13:55:43.683Z,1.10
2019-03-11T13:58:11.697Z,1.30
2019-03-11T14:00:56.381Z,1.30
2019-03-11T14:03:17.102Z,1.47
2019-03-11T14:05:46.850Z,1.13
2019-03-11T14:08:16.345Z,2.23
2019-03-11T14:10:44.532Z,2.03
2019-03-11T14:13:17.358Z,1.40
2019-03-11T14:15:46.695Z,2.00
2019-03-11T14:18:21.759Z,2.23
2019-03-11T14:20:50.430Z,1.53
2019-03-11T14:23:18.312Z,1.30
2019-03-11T14:25:45.881Z,1.43
2019-03-11T14:28:14.905Z,0.87
2019-03-11T14:30:43.107Z,1.13
2019-03-11T14:33:11.219Z,1.53
2019-03-11T14:35:40.761Z,2.73
2019-03-11T14:38:08.349Z,1.87
2019-03-11T14:40:39.494Z,2.73
2019-03-11T14:43:08.639Z,0.80
2019-03-11T14:45:36.312Z,3.60
2019-03-11T14:48:04.134Z,1.13
2019-03-11T14:50:31.739Z,1.17
2019-03-11T14:52:59.579Z,0.90
2019-03-11T14:55:27.813Z,1.20
2019-03-11T14:57:55.737Z,1.00
2019-03-11T15:00:23.955Z,1.00
2019-03-11T15:02:51.620Z,1.80
2019-03-11T15:05:19.215Z,1.30
2019-03-11T15:07:46.873Z,1.67
2019-03-11T15:10:15.549Z,0.90
2019-03-11T15:12:43.528Z,1.03
2019-03-11T15:15:14.547Z,1.17
2019-03-11T15:17:42.280Z,2.60
2019-03-11T15:20:10.206Z,1.47
2019-03-11T15:22:38.015Z,1.90
2019-03-11T15:25:06.819Z,2.13
2019-03-11T15:27:35.023Z,0.93
2019-03-11T15:30:03.227Z,1.20
2019-03-11T15:32:30.952Z,1.43
2019-03-11T15:34:59.461Z,1.93
2019-03-11T15:37:27.460Z,1.37
2019-03-11T15:39:55.274Z,1.27
2019-03-11T15:42:23.278Z,3.23
2019-03-11T15:44:51.032Z,1.50
2019-03-11T15:47:18.828Z,1.87
2019-03-11T15:49:46.627Z,1.60
2019-03-11T15:52:14.230Z,1.07
2019-03-11T15:54:41.782Z,2.17
2019-03-11T15:57:12.301Z,4.63
2019-03-11T15:59:39.954Z,1.77
2019-03-11T16:02:08.215Z,1.50
2019-03-11T16:04:36.204Z,2.63
2019-03-11T16:07:04.745Z,2.33
2019-03-11T16:09:32.849Z,3.40
2019-03-11T16:12:01.547Z,2.47
2019-03-11T16:14:29.618Z,2.90
2019-03-11T16:16:58.747Z,1.70
2019-03-11T16:19:27.401Z,2.83
2019-03-11T16:21:55.564Z,2.03
2019-03-11T16:24:23.713Z,1.83
2019-03-11T16:26:52.537Z,4.07
2019-03-11T16:29:20.141Z,5.07
2019-03-11T16:31:47.731Z,3.30
2019-03-11T16:34:15.756Z,3.00
2019-03-11T16:36:43.575Z,4.43
2019-03-11T16:39:11.992Z,1.70
2019-03-11T16:41:40.014Z,2.97
2019-03-11T16:44:07.633Z,2.03
2019-03-11T16:46:35.358Z,2.47
2019-03-11T16:49:03.221Z,2.97
2019-03-11T16:51:31.304Z,2.57
2019-03-11T16:53:59.467Z,3.30
2019-03-11T16:56:27.855Z,2.90
2019-03-11T16:58:55.488Z,2.90
2019-03-11T17:01:22.938Z,3.03
2019-03-11T17:03:50.537Z,3.97
2019-03-11T17:06:19.154Z,7.87
2019-03-11T17:08:46.696Z,4.97
2019-03-11T17:11:14.706Z,5.03
2019-03-11T17:13:42.441Z,6.93
2019-03-11T17:16:10.307Z,4.73
2019-03-11T17:18:37.836Z,5.10
2019-03-11T17:21:06.930Z,4.70
2019-03-11T17:23:34.629Z,6.63
2019-03-11T17:26:02.480Z,4.73
2019-03-11T17:28:30.338Z,7.40
2019-03-11T17:30:58.493Z,6.20
2019-03-11T17:33:26.089Z,5.73
2019-03-11T17:35:53.741Z,6.40
2019-03-11T17:38:21.596Z,5.20
2019-03-11T17:40:49.229Z,5.50
2019-03-11T17:43:17.451Z,5.33
2019-03-11T17:45:45.549Z,5.17
2019-03-11T17:48:13.651Z,4.47
2019-03-11T17:50:41.535Z,5.27
2019-03-11T17:53:19.612Z,4.33
2019-03-11T17:55:39.656Z,4.00
2019-03-11T17:58:07.315Z,5.33
2019-03-11T18:00:35.271Z,3.53
2019-03-11T18:03:03.633Z,3.63
2019-03-11T18:05:33.206Z,3.73
2019-03-11T18:08:01.147Z,4.10
2019-03-11T18:10:29.212Z,3.77
2019-03-11T18:12:56.916Z,3.60
2019-03-11T18:15:25.110Z,3.77
2019-03-11T18:17:52.813Z,4.43
2019-03-11T18:20:20.445Z,5.23
2019-03-11T18:22:48.770Z,5.13
2019-03-11T18:25:16.389Z,4.93
2019-03-11T18:27:44.170Z,4.80
2019-03-11T18:30:14.762Z,4.80
2019-03-11T18:32:42.379Z,5.70
2019-03-11T18:35:10.079Z,6.03
2019-03-11T18:37:37.678Z,6.47
2019-03-11T18:40:07.411Z,5.57
2019-03-11T18:42:35.334Z,5.47
2019-03-11T18:45:03.131Z,5.60
2019-03-11T18:47:31.150Z,6.30
2019-03-11T18:49:59.189Z,5.27
2019-03-11T18:52:26.955Z,6.90
2019-03-11T18:54:54.636Z,5.83
2019-03-11T18:57:22.369Z,5.07
2019-03-11T18:59:50.284Z,6.90
2019-03-11T19:02:18.237Z,8.00
2019-03-11T19:04:46.330Z,7.23
2019-03-11T19:07:14.257Z,7.17
2019-03-11T19:09:42.067Z,5.43
2019-03-11T19:12:10.051Z,5.47
2019-03-11T19:14:38.373Z,5.83
2019-03-11T19:17:06.671Z,6.67
2019-03-11T19:19:45.608Z,7.97
2019-03-11T19:22:04.068Z,7.13
2019-03-11T19:24:31.620Z,5.00
2019-03-11T19:26:59.497Z,5.30
2019-03-11T19:29:27.024Z,4.57
2019-03-11T19:31:54.919Z,8.23
2019-03-11T19:34:22.820Z,6.70
2019-03-11T19:36:50.433Z,6.37
2019-03-11T19:39:20.281Z,6.03
2019-03-11T19:41:47.844Z,4.97
2019-03-11T19:44:15.411Z,5.97
2019-03-11T19:46:43.065Z,5.37
2019-03-11T19:49:11.514Z,5.07
2019-03-11T19:51:39.294Z,6.40
2019-03-11T19:54:06.846Z,5.43
2019-03-11T19:56:34.665Z,4.93
2019-03-11T19:59:02.206Z,4.13
2019-03-11T20:01:30.232Z,9.13
2019-03-11T20:03:57.749Z,4.60
2019-03-11T20:06:25.637Z,4.30
2019-03-11T20:08:53.408Z,3.90
2019-03-11T20:11:21.014Z,4.77
2019-03-11T20:13:48.879Z,5.93
2019-03-11T20:16:16.557Z,5.90
2019-03-11T20:18:44.456Z,5.63
2019-03-11T20:21:12.105Z,4.73
2019-03-11T20:23:39.779Z,4.87
2019-03-11T20:26:07.496Z,5.70
2019-03-11T20:28:35.131Z,6.03
2019-03-11T20:31:02.752Z,6.23
2019-03-11T20:33:30.365Z,7.13
2019-03-11T20:35:58.252Z,5.63
2019-03-11T20:38:25.829Z,5.10
2019-03-11T20:40:53.662Z,7.10
2019-03-11T20:43:21.481Z,6.60
2019-03-11T20:45:49.423Z,5.77
2019-03-11T20:48:16.968Z,5.70
2019-03-11T20:50:44.582Z,5.80
2019-03-11T20:53:12.508Z,6.70
2019-03-11T20:55:40.827Z,6.30
2019-03-11T20:58:08.877Z,6.10
2019-03-11T21:00:36.548Z,7.77
2019-03-11T21:03:04.410Z,6.80
2019-03-11T21:05:35.213Z,7.23
2019-03-11T21:08:01.699Z,5.77
2019-03-11T21:10:29.662Z,7.07
2019-03-11T21:12:57.491Z,6.53
2019-03-11T21:15:25.553Z,9.93
2019-03-11T21:17:53.396Z,5.97
2019-03-11T21:20:21.172Z,7.23
2019-03-11T21:22:49.026Z,6.97
2019-03-11T21:25:16.852Z,5.87
2019-03-11T21:27:44.683Z,5.43
2019-03-11T21:30:14.364Z,6.50
2019-03-11T21:32:42.002Z,4.53
2019-03-11T21:35:09.813Z,6.17
2019-03-11T21:37:37.528Z,4.23
2019-03-11T21:40:05.957Z,4.30
2019-03-11T21:42:33.810Z,5.53
2019-03-11T21:45:01.773Z,5.53
2019-03-11T21:47:29.379Z,4.70
2019-03-11T21:49:57.359Z,3.93
2019-03-11T21:52:25.209Z,4.43
2019-03-11T21:54:53.550Z,4.73
2019-03-11T21:57:21.294Z,4.83
2019-03-11T21:59:49.627Z,5.60
2019-03-11T22:02:17.249Z,5.10
2019-03-11T22:04:45.588Z,5.37
2019-03-11T22:07:13.216Z,5.30
2019-03-11T22:09:41.487Z,5.47
2019-03-11T22:12:10.740Z,5.23
2019-03-11T22:14:38.662Z,4.97
2019-03-11T22:17:07.232Z,4.53
2019-03-11T22:19:35.047Z,6.93
2019-03-11T22:22:02.714Z,5.47
2019-03-11T22:24:30.681Z,4.27
2019-03-11T22:26:58.123Z,4.10
2019-03-11T22:29:26.020Z,3.77
2019-03-11T22:31:53.685Z,3.20
2019-03-11T22:34:21.175Z,2.70
2019-03-11T22:36:49.088Z,2.50
2019-03-11T22:39:16.593Z,2.47
2019-03-11T22:41:44.808Z,2.20
2019-03-11T22:44:12.413Z,2.37
2019-03-11T22:46:39.983Z,2.40
2019-03-11T22:49:07.586Z,2.20
2019-03-11T22:51:35.721Z,2.57
2019-03-11T22:54:03.508Z,2.60
2019-03-11T22:56:31.443Z,2.60
2019-03-11T22:58:59.524Z,2.70
2019-03-11T23:01:28.142Z,2.63
2019-03-11T23:03:57.638Z,2.63
2019-03-11T23:06:25.688Z,2.50
2019-03-11T23:08:53.378Z,2.60
2019-03-11T23:11:21.039Z,2.90
2019-03-11T23:13:48.748Z,3.03
2019-03-11T23:16:16.273Z,3.63
2019-03-11T23:18:43.760Z,3.20
2019-03-11T23:21:11.274Z,2.90
2019-03-11T23:23:38.815Z,3.37
2019-03-11T23:26:06.789Z,3.40
2019-03-11T23:28:34.936Z,3.37
2019-03-11T23:31:02.691Z,3.10
2019-03-11T23:33:30.141Z,3.40
2019-03-11T23:35:58.355Z,3.53
2019-03-11T23:38:25.893Z,3.87
2019-03-11T23:40:53.748Z,4.07
2019-03-11T23:43:21.209Z,4.77
2019-03-11T23:45:48.933Z,4.90
2019-03-11T23:48:16.962Z,4.47
2019-03-11T23:50:44.548Z,4.57
2019-03-11T23:53:12.400Z,4.57
2019-03-11T23:55:39.782Z,4.87
2019-03-11T23:58:07.213Z,4.53
